Etusivu
METAR-TAF:

METAR-TAF

Lentoasemat :

Gaylord Regional Airport (Otsego County Airport)

Gaylord, Michigan, Yhdysvallat

Leveyspiiri: 45-00-59N, Pituuspiiri: 084-41-20W, korkeus merenpinnasta: 404 m

Tämänhetkinen sää

Tämä raportti tehtiin 40 minuuttia sitten, kello 11.53 UTC
Tuuli 4 kn pohjoisesta/koillisesta
Lämpötila 2°C
Kosteus 93%
Ilmanpaine 1018 hPa
Näkyvyys: 16.1 km
Pilvistä 300 ft:n korkeudessa

METAR: KGLR 011153Z AUTO 02004KT 10SM OVC003 02/01 A3005 RMK AO2 SLP189 60000 T00170011 10017 20011 53009

Aika: 08:33 (12:33 UTC)


TAF: puuttuu

Säähavainnot ja -ennusteet yli 4000 lentoasemalta (METAR- ja TAF-raportit).

Käytössä olevat sääasemat on merkitty karttaan keltaisilla ja punaisilla pisteillä.

Aseta hiiri pisteen päälle nähdäksesi sääaseman nimen.

Klikkaa sitten nähdäksesi säähavainnot ja -ennusteet.

Kartan vaihtaminen: klikkaa mustalla rastilla varustettuja vihreitä pisteitä, niin voit zoomata sisään; viivalla varustettua vihreää pistettä, niin voit zoomata ulos tai vihreitä nuolia, niin pääset viereisille kartoille.


METAR-TAF: